sensor_id;sensor_type;location;lat;lon;timestamp;temperature;humidity
40287;DHT22;25998;46.604;13.610;2023-11-21T00:01:27;5.70;99.90
40287;DHT22;25998;46.604;13.610;2023-11-21T00:04:38;5.80;99.90
40287;DHT22;25998;46.604;13.610;2023-11-21T00:07:49;5.70;99.90
40287;DHT22;25998;46.604;13.610;2023-11-21T00:10:59;5.70;99.90
40287;DHT22;25998;46.604;13.610;2023-11-21T00:14:11;5.80;99.90
40287;DHT22;25998;46.604;13.610;2023-11-21T00:17:22;5.90;99.90
40287;DHT22;25998;46.604;13.610;2023-11-21T00:20:33;5.80;99.90
40287;DHT22;25998;46.604;13.610;2023-11-21T00:23:44;5.80;99.90
40287;DHT22;25998;46.604;13.610;2023-11-21T00:26:55;5.90;99.90
40287;DHT22;25998;46.604;13.610;2023-11-21T00:30:06;6.00;99.90
40287;DHT22;25998;46.604;13.610;2023-11-21T00:33:19;6.00;99.90
40287;DHT22;25998;46.604;13.610;2023-11-21T00:36:30;5.90;99.90
40287;DHT22;25998;46.604;13.610;2023-11-21T00:39:41;5.80;99.90
40287;DHT22;25998;46.604;13.610;2023-11-21T00:42:52;5.70;99.90
40287;DHT22;25998;46.604;13.610;2023-11-21T00:46:05;5.80;99.90
40287;DHT22;25998;46.604;13.610;2023-11-21T00:49:18;5.90;99.90
40287;DHT22;25998;46.604;13.610;2023-11-21T00:52:28;6.00;99.90
40287;DHT22;25998;46.604;13.610;2023-11-21T00:55:39;6.00;99.90
40287;DHT22;25998;46.604;13.610;2023-11-21T00:58:50;6.00;99.90
40287;DHT22;25998;46.604;13.610;2023-11-21T01:02:02;5.90;99.90
40287;DHT22;25998;46.604;13.610;2023-11-21T01:05:15;5.60;99.90
40287;DHT22;25998;46.604;13.610;2023-11-21T01:08:26;5.50;99.90
40287;DHT22;25998;46.604;13.610;2023-11-21T01:11:37;5.40;99.90
40287;DHT22;25998;46.604;13.610;2023-11-21T01:14:48;5.30;99.90
40287;DHT22;25998;46.604;13.610;2023-11-21T01:17:59;5.30;99.90
40287;DHT22;25998;46.604;13.610;2023-11-21T01:21:10;5.30;99.90
40287;DHT22;25998;46.604;13.610;2023-11-21T01:24:21;5.30;99.90
40287;DHT22;25998;46.604;13.610;2023-11-21T01:27:34;5.30;99.90
40287;DHT22;25998;46.604;13.610;2023-11-21T01:30:45;5.50;99.90
40287;DHT22;25998;46.604;13.610;2023-11-21T01:33:56;5.50;99.90
40287;DHT22;25998;46.604;13.610;2023-11-21T01:37:07;5.60;99.90
40287;DHT22;25998;46.604;13.610;2023-11-21T01:40:19;5.70;99.90
40287;DHT22;25998;46.604;13.610;2023-11-21T01:43:31;5.90;99.90
40287;DHT22;25998;46.604;13.610;2023-11-21T01:46:42;5.80;99.90
40287;DHT22;25998;46.604;13.610;2023-11-21T01:49:53;5.80;99.90
40287;DHT22;25998;46.604;13.610;2023-11-21T01:53:07;5.80;99.90
40287;DHT22;25998;46.604;13.610;2023-11-21T01:56:19;5.80;99.90
40287;DHT22;25998;46.604;13.610;2023-11-21T01:59:36;5.80;99.90
40287;DHT22;25998;46.604;13.610;2023-11-21T02:02:48;5.80;99.90
40287;DHT22;25998;46.604;13.610;2023-11-21T02:05:59;5.80;99.90
40287;DHT22;25998;46.604;13.610;2023-11-21T02:09:10;5.90;99.90
40287;DHT22;25998;46.604;13.610;2023-11-21T02:12:23;6.00;99.90
40287;DHT22;25998;46.604;13.610;2023-11-21T02:15:37;6.10;99.90
40287;DHT22;25998;46.604;13.610;2023-11-21T02:18:49;6.00;99.90
40287;DHT22;25998;46.604;13.610;2023-11-21T02:22:01;5.50;99.90
40287;DHT22;25998;46.604;13.610;2023-11-21T02:25:13;5.40;99.90
40287;DHT22;25998;46.604;13.610;2023-11-21T02:28:26;5.40;99.90
40287;DHT22;25998;46.604;13.610;2023-11-21T02:31:37;5.50;99.90
40287;DHT22;25998;46.604;13.610;2023-11-21T02:34:56;5.60;99.90
40287;DHT22;25998;46.604;13.610;2023-11-21T02:38:11;5.60;99.90
40287;DHT22;25998;46.604;13.610;2023-11-21T02:41:22;5.60;99.90
40287;DHT22;25998;46.604;13.610;2023-11-21T02:44:32;5.70;99.90
40287;DHT22;25998;46.604;13.610;2023-11-21T02:47:44;5.70;99.90
40287;DHT22;25998;46.604;13.610;2023-11-21T02:50:58;5.80;99.90
40287;DHT22;25998;46.604;13.610;2023-11-21T02:54:09;5.70;99.90
40287;DHT22;25998;46.604;13.610;2023-11-21T02:57:20;5.60;99.90
40287;DHT22;25998;46.604;13.610;2023-11-21T03:00:31;5.70;99.90
40287;DHT22;25998;46.604;13.610;2023-11-21T03:03:42;5.90;99.90
40287;DHT22;25998;46.604;13.610;2023-11-21T03:06:53;5.90;99.90
40287;DHT22;25998;46.604;13.610;2023-11-21T03:10:04;5.80;99.90
40287;DHT22;25998;46.604;13.610;2023-11-21T03:13:16;5.70;99.90
40287;DHT22;25998;46.604;13.610;2023-11-21T03:16:26;5.70;99.90
40287;DHT22;25998;46.604;13.610;2023-11-21T03:19:37;5.70;99.90
40287;DHT22;25998;46.604;13.610;2023-11-21T03:22:48;5.70;99.90
40287;DHT22;25998;46.604;13.610;2023-11-21T03:25:59;5.70;99.90
40287;DHT22;25998;46.604;13.610;2023-11-21T03:29:10;5.70;99.90
40287;DHT22;25998;46.604;13.610;2023-11-21T03:32:24;5.80;99.90
40287;DHT22;25998;46.604;13.610;2023-11-21T03:35:35;5.90;99.90
40287;DHT22;25998;46.604;13.610;2023-11-21T03:38:48;6.00;99.90
40287;DHT22;25998;46.604;13.610;2023-11-21T03:41:59;6.00;99.90
40287;DHT22;25998;46.604;13.610;2023-11-21T03:45:10;6.00;99.90
40287;DHT22;25998;46.604;13.610;2023-11-21T03:48:22;6.00;99.90
40287;DHT22;25998;46.604;13.610;2023-11-21T03:51:33;5.90;99.90
40287;DHT22;25998;46.604;13.610;2023-11-21T03:54:44;5.90;99.90
40287;DHT22;25998;46.604;13.610;2023-11-21T03:57:55;6.00;99.90
40287;DHT22;25998;46.604;13.610;2023-11-21T04:01:07;5.90;99.90
40287;DHT22;25998;46.604;13.610;2023-11-21T04:04:18;5.80;99.90
40287;DHT22;25998;46.604;13.610;2023-11-21T04:07:30;5.80;99.90
40287;DHT22;25998;46.604;13.610;2023-11-21T04:10:41;5.90;99.90
40287;DHT22;25998;46.604;13.610;2023-11-21T04:13:52;5.90;99.90
40287;DHT22;25998;46.604;13.610;2023-11-21T04:17:03;5.80;99.90
40287;DHT22;25998;46.604;13.610;2023-11-21T04:20:14;5.80;99.90
40287;DHT22;25998;46.604;13.610;2023-11-21T04:23:25;5.90;99.90
40287;DHT22;25998;46.604;13.610;2023-11-21T04:26:36;5.90;99.90
40287;DHT22;25998;46.604;13.610;2023-11-21T04:29:47;5.90;99.90
40287;DHT22;25998;46.604;13.610;2023-11-21T04:32:58;5.90;99.90
40287;DHT22;25998;46.604;13.610;2023-11-21T04:36:09;5.90;99.90
40287;DHT22;25998;46.604;13.610;2023-11-21T04:39:21;5.90;99.90
40287;DHT22;25998;46.604;13.610;2023-11-21T04:42:33;5.90;99.90
40287;DHT22;25998;46.604;13.610;2023-11-21T04:45:44;5.90;99.90
40287;DHT22;25998;46.604;13.610;2023-11-21T04:48:55;5.90;99.90
40287;DHT22;25998;46.604;13.610;2023-11-21T04:52:06;5.90;99.90
40287;DHT22;25998;46.604;13.610;2023-11-21T04:55:17;5.90;99.90
40287;DHT22;25998;46.604;13.610;2023-11-21T04:58:28;5.90;99.90
40287;DHT22;25998;46.604;13.610;2023-11-21T05:01:39;6.00;99.90
40287;DHT22;25998;46.604;13.610;2023-11-21T05:04:50;5.80;99.90
40287;DHT22;25998;46.604;13.610;2023-11-21T05:08:01;5.60;99.90
40287;DHT22;25998;46.604;13.610;2023-11-21T05:11:22;5.60;99.90
40287;DHT22;25998;46.604;13.610;2023-11-21T05:14:35;5.70;99.90
40287;DHT22;25998;46.604;13.610;2023-11-21T05:17:47;5.80;99.90
40287;DHT22;25998;46.604;13.610;2023-11-21T05:21:02;5.80;99.90
40287;DHT22;25998;46.604;13.610;2023-11-21T05:24:13;5.80;99.90
40287;DHT22;25998;46.604;13.610;2023-11-21T05:27:24;5.60;99.90
40287;DHT22;25998;46.604;13.610;2023-11-21T05:30:35;5.60;99.90
40287;DHT22;25998;46.604;13.610;2023-11-21T05:33:46;5.60;99.90
40287;DHT22;25998;46.604;13.610;2023-11-21T05:37:00;5.60;99.90
40287;DHT22;25998;46.604;13.610;2023-11-21T05:40:11;5.60;99.90
40287;DHT22;25998;46.604;13.610;2023-11-21T05:43:23;5.70;99.90
40287;DHT22;25998;46.604;13.610;2023-11-21T05:46:34;5.70;99.90
40287;DHT22;25998;46.604;13.610;2023-11-21T05:49:45;5.70;99.90
40287;DHT22;25998;46.604;13.610;2023-11-21T05:53:00;5.80;99.90
40287;DHT22;25998;46.604;13.610;2023-11-21T05:56:11;5.80;99.90
40287;DHT22;25998;46.604;13.610;2023-11-21T05:59:22;5.80;99.90
40287;DHT22;25998;46.604;13.610;2023-11-21T06:02:33;5.90;99.90
40287;DHT22;25998;46.604;13.610;2023-11-21T06:05:44;5.90;99.90
40287;DHT22;25998;46.604;13.610;2023-11-21T06:08:54;6.00;99.90
40287;DHT22;25998;46.604;13.610;2023-11-21T06:12:06;6.00;99.90
40287;DHT22;25998;46.604;13.610;2023-11-21T06:15:17;5.90;99.90
40287;DHT22;25998;46.604;13.610;2023-11-21T06:18:31;5.90;99.90
40287;DHT22;25998;46.604;13.610;2023-11-21T06:21:45;6.00;99.90
40287;DHT22;25998;46.604;13.610;2023-11-21T06:24:57;6.00;99.90
40287;DHT22;25998;46.604;13.610;2023-11-21T06:28:11;6.00;99.90
40287;DHT22;25998;46.604;13.610;2023-11-21T06:31:21;5.90;99.90
40287;DHT22;25998;46.604;13.610;2023-11-21T06:34:33;5.90;99.90
40287;DHT22;25998;46.604;13.610;2023-11-21T06:37:44;5.80;99.90
40287;DHT22;25998;46.604;13.610;2023-11-21T06:40:59;5.90;99.90
40287;DHT22;25998;46.604;13.610;2023-11-21T06:44:12;5.90;99.90
40287;DHT22;25998;46.604;13.610;2023-11-21T06:47:24;5.80;99.90
40287;DHT22;25998;46.604;13.610;2023-11-21T06:50:42;5.90;99.90
40287;DHT22;25998;46.604;13.610;2023-11-21T06:53:53;5.90;99.90
40287;DHT22;25998;46.604;13.610;2023-11-21T06:57:04;5.90;99.90
40287;DHT22;25998;46.604;13.610;2023-11-21T07:00:18;6.00;99.90
40287;DHT22;25998;46.604;13.610;2023-11-21T07:03:29;5.90;99.90
40287;DHT22;25998;46.604;13.610;2023-11-21T07:06:40;5.80;99.90
40287;DHT22;25998;46.604;13.610;2023-11-21T07:09:56;5.80;99.90
40287;DHT22;25998;46.604;13.610;2023-11-21T07:13:07;5.80;99.90
40287;DHT22;25998;46.604;13.610;2023-11-21T07:16:23;5.90;99.90
40287;DHT22;25998;46.604;13.610;2023-11-21T07:19:34;5.80;99.90
40287;DHT22;25998;46.604;13.610;2023-11-21T07:22:45;5.80;99.90
40287;DHT22;25998;46.604;13.610;2023-11-21T07:25:56;5.80;99.90
40287;DHT22;25998;46.604;13.610;2023-11-21T07:29:07;5.80;99.90
40287;DHT22;25998;46.604;13.610;2023-11-21T07:32:17;5.80;99.90
40287;DHT22;25998;46.604;13.610;2023-11-21T07:35:28;5.80;99.90
40287;DHT22;25998;46.604;13.610;2023-11-21T07:38:39;5.90;99.90
40287;DHT22;25998;46.604;13.610;2023-11-21T07:41:53;6.10;99.90
40287;DHT22;25998;46.604;13.610;2023-11-21T07:45:05;6.00;99.90
40287;DHT22;25998;46.604;13.610;2023-11-21T07:48:17;6.10;99.90
40287;DHT22;25998;46.604;13.610;2023-11-21T07:51:28;6.10;99.90
40287;DHT22;25998;46.604;13.610;2023-11-21T07:54:39;6.10;99.90
40287;DHT22;25998;46.604;13.610;2023-11-21T07:57:50;6.10;99.90
40287;DHT22;25998;46.604;13.610;2023-11-21T08:01:01;6.00;99.90
40287;DHT22;25998;46.604;13.610;2023-11-21T08:04:12;6.10;99.90
40287;DHT22;25998;46.604;13.610;2023-11-21T08:07:23;6.10;99.90
40287;DHT22;25998;46.604;13.610;2023-11-21T08:10:34;6.10;99.90
40287;DHT22;25998;46.604;13.610;2023-11-21T08:13:49;6.20;99.90
40287;DHT22;25998;46.604;13.610;2023-11-21T08:17:00;6.00;99.90
40287;DHT22;25998;46.604;13.610;2023-11-21T08:20:11;6.00;99.90
40287;DHT22;25998;46.604;13.610;2023-11-21T08:23:25;6.10;99.90
40287;DHT22;25998;46.604;13.610;2023-11-21T08:26:36;6.10;99.90
40287;DHT22;25998;46.604;13.610;2023-11-21T08:29:47;6.00;99.90
40287;DHT22;25998;46.604;13.610;2023-11-21T08:33:02;6.00;99.90
40287;DHT22;25998;46.604;13.610;2023-11-21T08:36:14;6.00;99.90
40287;DHT22;25998;46.604;13.610;2023-11-21T08:39:25;6.10;99.90
40287;DHT22;25998;46.604;13.610;2023-11-21T08:42:39;6.00;99.90
40287;DHT22;25998;46.604;13.610;2023-11-21T08:45:52;6.00;99.90
40287;DHT22;25998;46.604;13.610;2023-11-21T08:49:04;6.00;99.90
40287;DHT22;25998;46.604;13.610;2023-11-21T08:52:14;6.00;99.90
40287;DHT22;25998;46.604;13.610;2023-11-21T08:55:25;6.00;99.90
40287;DHT22;25998;46.604;13.610;2023-11-21T08:58:36;6.20;99.90
40287;DHT22;25998;46.604;13.610;2023-11-21T09:01:47;6.20;99.90
40287;DHT22;25998;46.604;13.610;2023-11-21T09:04:58;6.30;99.90
40287;DHT22;25998;46.604;13.610;2023-11-21T09:08:09;6.30;99.90
40287;DHT22;25998;46.604;13.610;2023-11-21T09:11:20;6.40;99.90
40287;DHT22;25998;46.604;13.610;2023-11-21T09:14:31;6.50;99.90
40287;DHT22;25998;46.604;13.610;2023-11-21T09:17:44;6.50;99.90
40287;DHT22;25998;46.604;13.610;2023-11-21T09:20:58;6.40;99.90
40287;DHT22;25998;46.604;13.610;2023-11-21T09:24:09;6.50;99.90
40287;DHT22;25998;46.604;13.610;2023-11-21T09:27:20;6.40;99.90
40287;DHT22;25998;46.604;13.610;2023-11-21T09:30:36;6.30;99.90
40287;DHT22;25998;46.604;13.610;2023-11-21T09:33:47;6.40;99.90
40287;DHT22;25998;46.604;13.610;2023-11-21T09:36:58;6.40;99.90
40287;DHT22;25998;46.604;13.610;2023-11-21T09:40:11;6.60;99.90
40287;DHT22;25998;46.604;13.610;2023-11-21T09:43:23;6.70;99.90
40287;DHT22;25998;46.604;13.610;2023-11-21T09:46:39;6.70;99.90
40287;DHT22;25998;46.604;13.610;2023-11-21T09:49:54;6.60;99.90
40287;DHT22;25998;46.604;13.610;2023-11-21T09:53:17;6.70;99.90
40287;DHT22;25998;46.604;13.610;2023-11-21T09:56:28;6.70;99.90
40287;DHT22;25998;46.604;13.610;2023-11-21T09:59:40;6.80;99.90
40287;DHT22;25998;46.604;13.610;2023-11-21T10:02:54;6.90;99.90
40287;DHT22;25998;46.604;13.610;2023-11-21T10:06:08;7.00;99.90
40287;DHT22;25998;46.604;13.610;2023-11-21T10:09:23;7.10;99.90
40287;DHT22;25998;46.604;13.610;2023-11-21T10:12:35;7.10;99.90
40287;DHT22;25998;46.604;13.610;2023-11-21T10:15:51;6.90;99.90
40287;DHT22;25998;46.604;13.610;2023-11-21T10:19:04;6.70;99.90
40287;DHT22;25998;46.604;13.610;2023-11-21T10:22:17;6.60;99.90
40287;DHT22;25998;46.604;13.610;2023-11-21T10:25:30;6.60;99.90
40287;DHT22;25998;46.604;13.610;2023-11-21T10:28:57;6.60;99.90
40287;DHT22;25998;46.604;13.610;2023-11-21T10:32:12;6.60;99.90
40287;DHT22;25998;46.604;13.610;2023-11-21T10:35:39;6.80;99.90
40287;DHT22;25998;46.604;13.610;2023-11-21T10:38:50;6.70;99.90
40287;DHT22;25998;46.604;13.610;2023-11-21T10:42:04;6.80;99.90
40287;DHT22;25998;46.604;13.610;2023-11-21T10:45:15;6.90;99.90
40287;DHT22;25998;46.604;13.610;2023-11-21T10:48:29;6.90;99.90
40287;DHT22;25998;46.604;13.610;2023-11-21T10:51:43;7.00;99.90
40287;DHT22;25998;46.604;13.610;2023-11-21T10:54:54;7.00;99.90
40287;DHT22;25998;46.604;13.610;2023-11-21T10:58:05;7.10;99.90
40287;DHT22;25998;46.604;13.610;2023-11-21T11:01:19;7.20;99.90
40287;DHT22;25998;46.604;13.610;2023-11-21T11:04:32;7.30;99.90
40287;DHT22;25998;46.604;13.610;2023-11-21T11:07:44;7.30;99.90
40287;DHT22;25998;46.604;13.610;2023-11-21T11:10:56;7.30;99.90
40287;DHT22;25998;46.604;13.610;2023-11-21T11:14:13;7.40;99.90
40287;DHT22;25998;46.604;13.610;2023-11-21T11:17:29;7.20;99.90
40287;DHT22;25998;46.604;13.610;2023-11-21T11:20:43;7.10;99.90
40287;DHT22;25998;46.604;13.610;2023-11-21T11:24:36;7.10;99.90
40287;DHT22;25998;46.604;13.610;2023-11-21T11:28:04;7.10;99.90
40287;DHT22;25998;46.604;13.610;2023-11-21T11:35:10;7.00;99.90
40287;DHT22;25998;46.604;13.610;2023-11-21T11:38:21;7.10;99.90
40287;DHT22;25998;46.604;13.610;2023-11-21T11:41:34;7.00;99.90
40287;DHT22;25998;46.604;13.610;2023-11-21T11:44:48;7.00;99.90
40287;DHT22;25998;46.604;13.610;2023-11-21T11:48:06;7.10;99.90
40287;DHT22;25998;46.604;13.610;2023-11-21T11:51:17;7.10;99.90
40287;DHT22;25998;46.604;13.610;2023-11-21T11:54:36;7.00;99.90
40287;DHT22;25998;46.604;13.610;2023-11-21T11:57:49;7.00;99.90
40287;DHT22;25998;46.604;13.610;2023-11-21T12:01:07;7.20;99.90
40287;DHT22;25998;46.604;13.610;2023-11-21T12:11:01;7.10;99.90
40287;DHT22;25998;46.604;13.610;2023-11-21T12:14:13;7.20;99.90
40287;DHT22;25998;46.604;13.610;2023-11-21T12:17:24;7.20;99.90
40287;DHT22;25998;46.604;13.610;2023-11-21T12:20:35;7.20;99.90
40287;DHT22;25998;46.604;13.610;2023-11-21T12:23:49;7.30;99.90
40287;DHT22;25998;46.604;13.610;2023-11-21T12:27:02;7.30;99.90
40287;DHT22;25998;46.604;13.610;2023-11-21T12:30:13;7.30;99.90
40287;DHT22;25998;46.604;13.610;2023-11-21T12:33:26;7.20;99.90
40287;DHT22;25998;46.604;13.610;2023-11-21T12:36:39;7.40;99.90
40287;DHT22;25998;46.604;13.610;2023-11-21T12:39:50;7.40;99.90
40287;DHT22;25998;46.604;13.610;2023-11-21T12:43:02;7.30;99.90
40287;DHT22;25998;46.604;13.610;2023-11-21T12:46:15;7.40;99.90
40287;DHT22;25998;46.604;13.610;2023-11-21T12:49:27;7.30;99.90
40287;DHT22;25998;46.604;13.610;2023-11-21T12:52:43;7.30;99.90
40287;DHT22;25998;46.604;13.610;2023-11-21T12:56:00;7.30;99.90
40287;DHT22;25998;46.604;13.610;2023-11-21T12:59:12;7.30;99.90
40287;DHT22;25998;46.604;13.610;2023-11-21T13:02:33;7.20;99.90
40287;DHT22;25998;46.604;13.610;2023-11-21T13:05:48;7.20;99.90
40287;DHT22;25998;46.604;13.610;2023-11-21T13:09:04;7.30;99.90
40287;DHT22;25998;46.604;13.610;2023-11-21T13:12:26;7.30;99.90
40287;DHT22;25998;46.604;13.610;2023-11-21T13:15:40;7.30;99.90
40287;DHT22;25998;46.604;13.610;2023-11-21T13:18:58;7.30;99.90
40287;DHT22;25998;46.604;13.610;2023-11-21T13:22:12;7.40;99.90
40287;DHT22;25998;46.604;13.610;2023-11-21T13:25:27;7.50;99.90
40287;DHT22;25998;46.604;13.610;2023-11-21T13:28:38;7.50;99.90
40287;DHT22;25998;46.604;13.610;2023-11-21T13:31:51;7.50;99.90
40287;DHT22;25998;46.604;13.610;2023-11-21T13:35:03;7.50;99.90
40287;DHT22;25998;46.604;13.610;2023-11-21T13:38:22;7.50;99.90
40287;DHT22;25998;46.604;13.610;2023-11-21T13:41:43;7.60;99.90
40287;DHT22;25998;46.604;13.610;2023-11-21T13:44:57;7.70;99.90
40287;DHT22;25998;46.604;13.610;2023-11-21T13:48:12;7.60;99.90
40287;DHT22;25998;46.604;13.610;2023-11-21T13:51:24;7.60;99.90
40287;DHT22;25998;46.604;13.610;2023-11-21T13:54:58;7.70;99.90
40287;DHT22;25998;46.604;13.610;2023-11-21T13:58:15;7.70;99.90
40287;DHT22;25998;46.604;13.610;2023-11-21T14:01:32;7.60;99.90
40287;DHT22;25998;46.604;13.610;2023-11-21T14:05:06;7.60;99.90
40287;DHT22;25998;46.604;13.610;2023-11-21T14:08:23;7.70;99.90
40287;DHT22;25998;46.604;13.610;2023-11-21T14:11:39;7.60;99.90
40287;DHT22;25998;46.604;13.610;2023-11-21T14:14:50;7.60;99.90
40287;DHT22;25998;46.604;13.610;2023-11-21T14:18:01;7.70;99.90
40287;DHT22;25998;46.604;13.610;2023-11-21T14:21:16;7.70;99.90
40287;DHT22;25998;46.604;13.610;2023-11-21T14:24:27;7.60;99.90
40287;DHT22;25998;46.604;13.610;2023-11-21T14:27:39;7.60;99.90
40287;DHT22;25998;46.604;13.610;2023-11-21T14:30:50;7.60;99.90
40287;DHT22;25998;46.604;13.610;2023-11-21T14:34:04;7.50;99.90
40287;DHT22;25998;46.604;13.610;2023-11-21T14:37:17;7.50;99.90
40287;DHT22;25998;46.604;13.610;2023-11-21T14:40:28;7.60;99.90
40287;DHT22;25998;46.604;13.610;2023-11-21T14:43:44;7.70;99.90
40287;DHT22;25998;46.604;13.610;2023-11-21T14:46:56;7.60;99.90
40287;DHT22;25998;46.604;13.610;2023-11-21T14:50:09;7.50;99.90
40287;DHT22;25998;46.604;13.610;2023-11-21T14:53:38;7.50;99.90
40287;DHT22;25998;46.604;13.610;2023-11-21T14:57:04;7.60;99.90
40287;DHT22;25998;46.604;13.610;2023-11-21T15:00:20;7.60;99.90
40287;DHT22;25998;46.604;13.610;2023-11-21T15:03:50;7.50;99.90
40287;DHT22;25998;46.604;13.610;2023-11-21T15:07:02;7.40;99.90
40287;DHT22;25998;46.604;13.610;2023-11-21T15:10:13;7.40;99.90
40287;DHT22;25998;46.604;13.610;2023-11-21T15:13:25;7.30;99.90
40287;DHT22;25998;46.604;13.610;2023-11-21T15:16:39;7.40;99.90
40287;DHT22;25998;46.604;13.610;2023-11-21T15:19:53;7.30;99.90
40287;DHT22;25998;46.604;13.610;2023-11-21T15:23:04;7.30;99.90
40287;DHT22;25998;46.604;13.610;2023-11-21T15:26:16;7.20;99.90
40287;DHT22;25998;46.604;13.610;2023-11-21T15:29:40;7.20;99.90
40287;DHT22;25998;46.604;13.610;2023-11-21T15:32:51;7.40;99.90
40287;DHT22;25998;46.604;13.610;2023-11-21T15:36:07;7.30;99.90
40287;DHT22;25998;46.604;13.610;2023-11-21T15:39:23;7.30;99.90
40287;DHT22;25998;46.604;13.610;2023-11-21T15:42:41;7.30;99.90
40287;DHT22;25998;46.604;13.610;2023-11-21T15:45:52;7.20;99.90
40287;DHT22;25998;46.604;13.610;2023-11-21T15:49:03;7.10;99.90
40287;DHT22;25998;46.604;13.610;2023-11-21T15:52:22;7.20;99.90
40287;DHT22;25998;46.604;13.610;2023-11-21T15:55:33;7.20;99.90
40287;DHT22;25998;46.604;13.610;2023-11-21T15:58:46;7.10;99.90
40287;DHT22;25998;46.604;13.610;2023-11-21T16:01:58;7.20;99.90
40287;DHT22;25998;46.604;13.610;2023-11-21T16:05:09;7.20;99.90
40287;DHT22;25998;46.604;13.610;2023-11-21T16:08:20;7.20;99.90
40287;DHT22;25998;46.604;13.610;2023-11-21T16:11:32;7.20;99.90
40287;DHT22;25998;46.604;13.610;2023-11-21T16:14:49;7.20;99.90
40287;DHT22;25998;46.604;13.610;2023-11-21T16:18:04;7.30;99.90
40287;DHT22;25998;46.604;13.610;2023-11-21T16:21:18;7.30;99.90
40287;DHT22;25998;46.604;13.610;2023-11-21T16:24:36;7.20;99.90
40287;DHT22;25998;46.604;13.610;2023-11-21T16:27:48;7.10;99.90
40287;DHT22;25998;46.604;13.610;2023-11-21T16:31:01;7.20;99.90
40287;DHT22;25998;46.604;13.610;2023-11-21T16:34:44;7.00;99.90
40287;DHT22;25998;46.604;13.610;2023-11-21T16:37:57;7.10;99.90
40287;DHT22;25998;46.604;13.610;2023-11-21T16:41:08;7.00;99.90
40287;DHT22;25998;46.604;13.610;2023-11-21T16:44:21;7.00;99.90
40287;DHT22;25998;46.604;13.610;2023-11-21T16:47:32;6.90;99.90
40287;DHT22;25998;46.604;13.610;2023-11-21T16:50:44;6.80;99.90
40287;DHT22;25998;46.604;13.610;2023-11-21T16:53:57;6.90;99.90
40287;DHT22;25998;46.604;13.610;2023-11-21T16:57:10;6.80;99.90
40287;DHT22;25998;46.604;13.610;2023-11-21T17:00:22;6.80;99.90
40287;DHT22;25998;46.604;13.610;2023-11-21T17:03:35;6.70;99.90
40287;DHT22;25998;46.604;13.610;2023-11-21T17:06:49;6.80;99.90
40287;DHT22;25998;46.604;13.610;2023-11-21T17:10:00;6.90;99.90
40287;DHT22;25998;46.604;13.610;2023-11-21T17:13:11;6.90;99.90
40287;DHT22;25998;46.604;13.610;2023-11-21T17:16:22;6.80;99.90
40287;DHT22;25998;46.604;13.610;2023-11-21T17:19:34;6.70;99.90
40287;DHT22;25998;46.604;13.610;2023-11-21T17:22:48;6.70;99.90
40287;DHT22;25998;46.604;13.610;2023-11-21T17:26:01;6.70;99.90
40287;DHT22;25998;46.604;13.610;2023-11-21T17:29:18;6.70;99.90
40287;DHT22;25998;46.604;13.610;2023-11-21T17:32:31;6.70;99.90
40287;DHT22;25998;46.604;13.610;2023-11-21T17:35:42;6.60;99.90
40287;DHT22;25998;46.604;13.610;2023-11-21T17:38:59;6.60;99.90
40287;DHT22;25998;46.604;13.610;2023-11-21T17:42:13;6.60;99.90
40287;DHT22;25998;46.604;13.610;2023-11-21T17:45:24;6.60;99.90
40287;DHT22;25998;46.604;13.610;2023-11-21T17:48:41;6.70;99.90
40287;DHT22;25998;46.604;13.610;2023-11-21T17:51:52;6.80;99.90
40287;DHT22;25998;46.604;13.610;2023-11-21T17:55:04;6.90;99.90
40287;DHT22;25998;46.604;13.610;2023-11-21T17:58:21;6.80;99.90
40287;DHT22;25998;46.604;13.610;2023-11-21T18:01:38;6.70;99.90
40287;DHT22;25998;46.604;13.610;2023-11-21T18:04:50;6.60;99.90
40287;DHT22;25998;46.604;13.610;2023-11-21T18:08:04;6.60;99.90
40287;DHT22;25998;46.604;13.610;2023-11-21T18:11:15;6.60;99.90
40287;DHT22;25998;46.604;13.610;2023-11-21T18:14:27;6.60;99.90
40287;DHT22;25998;46.604;13.610;2023-11-21T18:17:37;6.50;99.90
40287;DHT22;25998;46.604;13.610;2023-11-21T18:20:48;6.40;99.90
40287;DHT22;25998;46.604;13.610;2023-11-21T18:24:01;6.40;99.90
40287;DHT22;25998;46.604;13.610;2023-11-21T18:27:17;6.40;99.90
40287;DHT22;25998;46.604;13.610;2023-11-21T18:30:28;6.30;99.90
40287;DHT22;25998;46.604;13.610;2023-11-21T18:33:47;6.30;99.90
40287;DHT22;25998;46.604;13.610;2023-11-21T18:37:01;6.20;99.90
40287;DHT22;25998;46.604;13.610;2023-11-21T18:40:12;6.20;99.90
40287;DHT22;25998;46.604;13.610;2023-11-21T18:43:23;6.20;99.90
40287;DHT22;25998;46.604;13.610;2023-11-21T18:46:40;6.20;99.90
40287;DHT22;25998;46.604;13.610;2023-11-21T18:49:52;6.20;99.90
40287;DHT22;25998;46.604;13.610;2023-11-21T18:53:03;6.10;99.90
40287;DHT22;25998;46.604;13.610;2023-11-21T18:56:21;6.20;99.90
40287;DHT22;25998;46.604;13.610;2023-11-21T18:59:37;6.20;99.90
40287;DHT22;25998;46.604;13.610;2023-11-21T19:02:48;6.30;99.90
40287;DHT22;25998;46.604;13.610;2023-11-21T19:06:01;6.40;99.90
40287;DHT22;25998;46.604;13.610;2023-11-21T19:09:16;6.60;99.90
40287;DHT22;25998;46.604;13.610;2023-11-21T19:12:27;6.40;99.90
40287;DHT22;25998;46.604;13.610;2023-11-21T19:15:38;6.30;99.90
40287;DHT22;25998;46.604;13.610;2023-11-21T19:18:49;6.30;99.90
40287;DHT22;25998;46.604;13.610;2023-11-21T19:22:03;6.20;99.90
40287;DHT22;25998;46.604;13.610;2023-11-21T19:25:16;6.20;99.90
40287;DHT22;25998;46.604;13.610;2023-11-21T19:28:30;6.20;99.90
40287;DHT22;25998;46.604;13.610;2023-11-21T19:31:41;6.20;99.90
40287;DHT22;25998;46.604;13.610;2023-11-21T19:34:52;6.20;99.90
40287;DHT22;25998;46.604;13.610;2023-11-21T19:38:05;6.10;99.90
40287;DHT22;25998;46.604;13.610;2023-11-21T19:41:17;6.30;99.90
40287;DHT22;25998;46.604;13.610;2023-11-21T19:44:33;6.20;99.90
40287;DHT22;25998;46.604;13.610;2023-11-21T19:47:50;6.20;99.90
40287;DHT22;25998;46.604;13.610;2023-11-21T19:51:02;6.20;99.90
40287;DHT22;25998;46.604;13.610;2023-11-21T19:54:17;6.20;99.90
40287;DHT22;25998;46.604;13.610;2023-11-21T19:57:28;6.20;99.90
40287;DHT22;25998;46.604;13.610;2023-11-21T20:00:39;6.20;99.90
40287;DHT22;25998;46.604;13.610;2023-11-21T20:03:50;6.20;99.90
40287;DHT22;25998;46.604;13.610;2023-11-21T20:07:02;6.20;99.90
40287;DHT22;25998;46.604;13.610;2023-11-21T20:10:18;6.20;99.90
40287;DHT22;25998;46.604;13.610;2023-11-21T20:13:35;6.20;99.90
40287;DHT22;25998;46.604;13.610;2023-11-21T20:16:46;6.20;99.90
40287;DHT22;25998;46.604;13.610;2023-11-21T20:20:03;6.20;99.90
40287;DHT22;25998;46.604;13.610;2023-11-21T20:23:14;6.30;99.90
40287;DHT22;25998;46.604;13.610;2023-11-21T20:26:34;6.20;99.90
40287;DHT22;25998;46.604;13.610;2023-11-21T20:30:40;6.20;99.90